Time;durP1;ratioP1;P1;durP2;ratioP2;P2;SDS_P1;SDS_P2;PMS_P1;PMS_P2;Temp;Humidity;BMP_temperature;BMP_pressure;BME280_temperature;BME280_humidity;BME280_pressure;Samples;Min_cycle;Max_cycle;Signal;HPM_P1;HPM_P2
2021/08/21 00:01:12;;;;;;;;;;;16.40;99.90;;;;;;1846726;76;20153;-70
2021/08/21 00:03:39;;;;;;;;;;;16.40;99.90;;;;;;1847055;78;20431;-70
2021/08/21 00:06:06;;;;;;;;;;;16.30;99.90;;;;;;1847015;77;20122;-70
2021/08/21 00:08:33;;;;;;;;;;;16.30;99.90;;;;;;1847118;77;20471;-70
2021/08/21 00:11:00;;;;;;;;;;;16.40;99.90;;;;;;1846400;76;20170;-70
2021/08/21 00:13:26;;;;;;;;;;;16.40;99.90;;;;;;1847079;78;20158;-70
2021/08/21 00:15:53;;;;;;;;;;;16.30;99.90;;;;;;1846937;78;20467;-70
2021/08/21 00:18:20;;;;;;;;;;;16.30;99.90;;;;;;1846904;78;20161;-70
2021/08/21 00:20:47;;;;;;;;;;;16.30;99.90;;;;;;1846801;76;20193;-70
2021/08/21 00:23:14;;;;;;;;;;;16.20;99.90;;;;;;1846946;78;20327;-70
2021/08/21 00:25:41;;;;;;;;;;;16.20;99.90;;;;;;1846921;77;20377;-70
2021/08/21 00:28:08;;;;;;;;;;;16.30;99.90;;;;;;1847130;78;20178;-70
2021/08/21 00:30:34;;;;;;;;;;;16.30;99.90;;;;;;1846649;76;20455;-70
2021/08/21 00:33:01;;;;;;;;;;;16.30;99.90;;;;;;1846993;78;20153;-70
2021/08/21 00:35:28;;;;;;;;;;;16.20;99.90;;;;;;1846955;76;20173;-70
2021/08/21 00:37:55;;;;;;;;;;;16.10;99.90;;;;;;1846926;77;20459;-70
2021/08/21 00:40:22;;;;;;;;;;;16.20;99.90;;;;;;1846881;76;20189;-70
2021/08/21 00:42:51;;;;;;;;;;;16.10;99.90;;;;;;1847076;76;20459;-70
2021/08/21 00:45:19;;;;;;;;;;;16.10;99.90;;;;;;1847151;78;20150;-70
2021/08/21 00:47:45;;;;;;;;;;;16.10;99.90;;;;;;1847055;76;20486;-70
2021/08/21 00:50:12;;;;;;;;;;;16.10;99.90;;;;;;1847078;76;20189;-70
2021/08/21 00:52:39;;;;;;;;;;;16.20;99.90;;;;;;1846861;76;20412;-70
2021/08/21 00:55:07;;;;;;;;;;;16.10;99.90;;;;;;1847062;78;20463;-70
2021/08/21 00:57:34;;;;;;;;;;;16.00;99.90;;;;;;1847103;78;20365;-70
2021/08/21 01:00:01;;;;;;;;;;;16.00;99.90;;;;;;1846940;76;20684;-70
2021/08/21 01:02:31;;;;;;;;;;;16.10;99.90;;;;;;1846768;78;20119;-70
2021/08/21 01:04:57;;;;;;;;;;;16.10;99.90;;;;;;1846782;78;20193;-70
2021/08/21 01:07:26;;;;;;;;;;;16.10;99.90;;;;;;1847197;78;20407;-70
2021/08/21 01:09:52;;;;;;;;;;;16.00;99.90;;;;;;1846698;76;20287;-70
2021/08/21 01:12:20;;;;;;;;;;;16.00;99.90;;;;;;1846831;77;20236;-70
2021/08/21 01:14:48;;;;;;;;;;;16.00;99.90;;;;;;1847080;76;20158;-70
2021/08/21 01:17:16;;;;;;;;;;;16.10;99.90;;;;;;1847020;78;20177;-70
2021/08/21 01:19:44;;;;;;;;;;;16.10;99.90;;;;;;1847088;76;20343;-70
2021/08/21 01:22:12;;;;;;;;;;;16.20;99.90;;;;;;1846658;78;20500;-70
2021/08/21 01:24:40;;;;;;;;;;;16.20;99.90;;;;;;1847145;76;20181;-70
2021/08/21 01:27:07;;;;;;;;;;;16.10;99.90;;;;;;1847028;78;20126;-70
2021/08/21 01:29:34;;;;;;;;;;;16.10;99.90;;;;;;1847007;76;20494;-70
2021/08/21 01:32:00;;;;;;;;;;;16.10;99.90;;;;;;1846791;78;20157;-70
2021/08/21 01:34:27;;;;;;;;;;;16.20;99.90;;;;;;1847041;78;20464;-70
2021/08/21 01:36:54;;;;;;;;;;;16.20;99.90;;;;;;1846954;78;20162;-70
2021/08/21 01:39:21;;;;;;;;;;;16.20;99.90;;;;;;1847044;76;20123;-70
2021/08/21 01:41:48;;;;;;;;;;;16.20;99.90;;;;;;1846887;76;20447;-70
2021/08/21 01:44:15;;;;;;;;;;;16.10;99.90;;;;;;1847119;77;20170;-70
2021/08/21 01:46:46;;;;;;;;;;;16.20;99.90;;;;;;1847037;76;20174;-70
2021/08/21 01:49:11;;;;;;;;;;;16.20;99.90;;;;;;1846801;76;20122;-70
2021/08/21 01:51:46;;;;;;;;;;;16.20;99.90;;;;;;1846855;78;20474;-70
2021/08/21 01:54:13;;;;;;;;;;;16.20;99.90;;;;;;1846015;78;20162;-71
2021/08/21 01:56:48;;;;;;;;;;;16.20;99.90;;;;;;1847186;76;20158;-71
2021/08/21 01:59:21;;;;;;;;;;;16.30;99.90;;;;;;1845753;76;20297;-71
2021/08/21 02:01:48;;;;;;;;;;;16.30;99.90;;;;;;1846941;76;20178;-71
2021/08/21 02:04:15;;;;;;;;;;;16.30;99.90;;;;;;1847167;76;20155;-71
2021/08/21 02:06:42;;;;;;;;;;;16.20;99.90;;;;;;1847128;78;20190;-71
2021/08/21 02:09:10;;;;;;;;;;;16.20;99.90;;;;;;1847111;78;20177;-71
2021/08/21 02:11:37;;;;;;;;;;;16.20;99.90;;;;;;1845344;76;20179;-72
2021/08/21 02:14:04;;;;;;;;;;;16.20;99.90;;;;;;1847271;76;20115;-72
2021/08/21 02:16:32;;;;;;;;;;;16.20;99.90;;;;;;1847125;78;20428;-71
2021/08/21 02:18:58;;;;;;;;;;;16.20;99.90;;;;;;1847105;78;20513;-71
2021/08/21 02:21:25;;;;;;;;;;;16.10;99.90;;;;;;1846960;76;20185;-71
2021/08/21 02:23:52;;;;;;;;;;;16.10;99.90;;;;;;1847172;78;20487;-71
2021/08/21 02:26:19;;;;;;;;;;;16.20;99.90;;;;;;1847263;78;20162;-72
2021/08/21 02:28:46;;;;;;;;;;;16.20;99.90;;;;;;1847201;77;20185;-71
2021/08/21 02:31:13;;;;;;;;;;;16.10;99.90;;;;;;1904061;71;20177;-73
2021/08/21 02:33:40;;;;;;;;;;;16.10;99.90;;;;;;1924582;73;20195;-73
2021/08/21 02:36:06;;;;;;;;;;;16.20;99.90;;;;;;1924712;75;20445;-72
2021/08/21 02:38:33;;;;;;;;;;;16.10;99.90;;;;;;1924670;73;20161;-72
2021/08/21 02:41:00;;;;;;;;;;;16.10;99.90;;;;;;1924583;73;20383;-72
2021/08/21 02:43:27;;;;;;;;;;;16.10;99.90;;;;;;1924715;75;20117;-73
2021/08/21 02:45:54;;;;;;;;;;;16.10;99.90;;;;;;1924606;74;20937;-72
2021/08/21 02:48:20;;;;;;;;;;;16.10;99.90;;;;;;1924725;75;20118;-72
2021/08/21 02:50:47;;;;;;;;;;;16.10;99.90;;;;;;1924619;73;20216;-72
2021/08/21 02:53:14;;;;;;;;;;;16.00;99.90;;;;;;1924663;75;20160;-72
2021/08/21 02:55:41;;;;;;;;;;;16.00;99.90;;;;;;1924840;73;20122;-72
2021/08/21 02:58:08;;;;;;;;;;;16.00;99.90;;;;;;1924502;75;20172;-72
2021/08/21 03:00:34;;;;;;;;;;;16.00;99.90;;;;;;1924317;73;20176;-72
2021/08/21 03:03:01;;;;;;;;;;;16.10;99.90;;;;;;1924599;75;20391;-72
2021/08/21 03:05:28;;;;;;;;;;;16.00;99.90;;;;;;1924795;75;20231;-72
2021/08/21 03:07:55;;;;;;;;;;;15.90;99.90;;;;;;1924705;75;20157;-72
2021/08/21 03:10:22;;;;;;;;;;;16.00;99.90;;;;;;1924345;73;20169;-72
2021/08/21 03:12:48;;;;;;;;;;;16.00;99.90;;;;;;1924635;75;20176;-72
2021/08/21 03:15:15;;;;;;;;;;;15.90;99.90;;;;;;1924527;75;20235;-72
2021/08/21 03:17:42;;;;;;;;;;;16.00;99.90;;;;;;1924521;74;20211;-73
2021/08/21 03:20:09;;;;;;;;;;;16.00;99.90;;;;;;1924709;73;20215;-72
2021/08/21 03:22:36;;;;;;;;;;;16.00;99.90;;;;;;1924467;73;20207;-73
2021/08/21 03:25:03;;;;;;;;;;;16.00;99.90;;;;;;1924789;75;20216;-73
2021/08/21 03:27:30;;;;;;;;;;;16.00;99.90;;;;;;1924713;73;20418;-73
2021/08/21 03:29:57;;;;;;;;;;;16.10;99.90;;;;;;1924744;73;20172;-72
2021/08/21 03:32:24;;;;;;;;;;;16.00;99.90;;;;;;1924338;75;20129;-72
2021/08/21 03:34:50;;;;;;;;;;;15.90;99.90;;;;;;1924668;73;20157;-73
2021/08/21 03:37:17;;;;;;;;;;;15.90;99.90;;;;;;1924581;75;20192;-72
2021/08/21 03:39:44;;;;;;;;;;;15.90;99.90;;;;;;1924665;73;20153;-72
2021/08/21 03:42:11;;;;;;;;;;;16.00;99.90;;;;;;1924374;75;20134;-73
2021/08/21 03:44:38;;;;;;;;;;;16.00;99.90;;;;;;1924628;73;20152;-72
2021/08/21 03:47:05;;;;;;;;;;;15.90;99.90;;;;;;1924583;75;20418;-72
2021/08/21 03:49:32;;;;;;;;;;;16.00;99.90;;;;;;1924686;73;20191;-72
2021/08/21 03:51:59;;;;;;;;;;;16.00;99.90;;;;;;1924548;75;20118;-72
2021/08/21 03:54:25;;;;;;;;;;;15.90;99.90;;;;;;1924518;75;20173;-72
2021/08/21 03:56:52;;;;;;;;;;;15.90;99.90;;;;;;1924428;74;20130;-72
2021/08/21 03:59:19;;;;;;;;;;;15.90;99.90;;;;;;1924651;73;20212;-72
2021/08/21 04:01:46;;;;;;;;;;;15.80;99.90;;;;;;1924268;73;20180;-72
2021/08/21 04:04:13;;;;;;;;;;;15.80;99.90;;;;;;1924745;73;20169;-72
2021/08/21 04:06:40;;;;;;;;;;;15.80;99.90;;;;;;1924514;74;20164;-72
2021/08/21 04:09:07;;;;;;;;;;;15.80;99.90;;;;;;1924623;75;20114;-72
2021/08/21 04:11:34;;;;;;;;;;;15.80;99.90;;;;;;1924322;73;20490;-72
2021/08/21 04:14:01;;;;;;;;;;;15.80;99.90;;;;;;1924681;73;20161;-72
2021/08/21 04:16:28;;;;;;;;;;;15.80;99.90;;;;;;1924665;75;20297;-72
2021/08/21 04:18:54;;;;;;;;;;;15.90;99.90;;;;;;1924471;74;20503;-73
2021/08/21 04:21:21;;;;;;;;;;;15.90;99.90;;;;;;1924293;73;20184;-72
2021/08/21 04:23:49;;;;;;;;;;;15.90;99.90;;;;;;1924642;73;20978;-72
2021/08/21 04:26:15;;;;;;;;;;;15.90;99.90;;;;;;1924881;73;20478;-73
2021/08/21 04:28:42;;;;;;;;;;;15.80;99.90;;;;;;1924287;75;20216;-72
2021/08/21 04:31:09;;;;;;;;;;;15.70;99.90;;;;;;1924272;73;20172;-72
2021/08/21 04:33:36;;;;;;;;;;;15.80;99.90;;;;;;1924679;75;20121;-73
2021/08/21 04:36:03;;;;;;;;;;;15.80;99.90;;;;;;1924644;75;20168;-73
2021/08/21 04:38:32;;;;;;;;;;;15.80;99.90;;;;;;1924668;73;20419;-72
2021/08/21 04:40:58;;;;;;;;;;;15.70;99.90;;;;;;1924130;73;20114;-72
2021/08/21 04:43:25;;;;;;;;;;;15.80;99.90;;;;;;1924520;75;20157;-73
2021/08/21 04:45:52;;;;;;;;;;;15.80;99.90;;;;;;1924553;75;20169;-72
2021/08/21 04:48:18;;;;;;;;;;;15.70;99.90;;;;;;1924526;74;20110;-72
2021/08/21 04:50:45;;;;;;;;;;;15.70;99.90;;;;;;1924174;73;20169;-72
2021/08/21 04:53:12;;;;;;;;;;;15.70;99.90;;;;;;1924497;73;20173;-72
2021/08/21 04:55:39;;;;;;;;;;;15.70;99.90;;;;;;1924520;73;20129;-73
2021/08/21 04:58:05;;;;;;;;;;;15.70;99.90;;;;;;1924394;74;20160;-72
2021/08/21 05:00:32;;;;;;;;;;;15.70;99.90;;;;;;1924285;73;20152;-72
2021/08/21 05:02:59;;;;;;;;;;;15.80;99.90;;;;;;1925164;74;20180;-73
2021/08/21 05:05:26;;;;;;;;;;;15.80;99.90;;;;;;1924989;75;20184;-72
2021/08/21 05:07:53;;;;;;;;;;;15.80;99.90;;;;;;1924938;73;20490;-73
2021/08/21 05:10:20;;;;;;;;;;;15.80;99.90;;;;;;1924829;73;20171;-75
2021/08/21 05:12:47;;;;;;;;;;;15.80;99.90;;;;;;1924968;75;20152;-72
2021/08/21 05:15:14;;;;;;;;;;;15.90;99.90;;;;;;1925019;75;20493;-73
2021/08/21 05:17:41;;;;;;;;;;;15.80;99.90;;;;;;1924948;73;20114;-73
2021/08/21 05:20:18;;;;;;;;;;;15.90;99.90;;;;;;1924872;73;20145;-73
2021/08/21 05:25:15;;;;;;;;;;;15.80;99.90;;;;;;1924809;75;20180;-73
2021/08/21 05:27:43;;;;;;;;;;;15.80;99.90;;;;;;1924934;75;20121;-73
2021/08/21 05:30:10;;;;;;;;;;;15.90;99.90;;;;;;1925323;73;20380;-73
2021/08/21 05:32:37;;;;;;;;;;;15.90;99.90;;;;;;1925055;73;20145;-73
2021/08/21 05:35:04;;;;;;;;;;;15.90;99.90;;;;;;1925119;75;20176;-73
2021/08/21 05:37:31;;;;;;;;;;;15.90;99.90;;;;;;1925092;75;20118;-73
2021/08/21 05:39:58;;;;;;;;;;;15.90;99.90;;;;;;1925240;73;20102;-73
2021/08/21 05:42:25;;;;;;;;;;;15.90;99.90;;;;;;1924945;75;20118;-72
2021/08/21 05:44:51;;;;;;;;;;;15.90;99.90;;;;;;1925305;75;20140;-73
2021/08/21 05:47:18;;;;;;;;;;;15.90;99.90;;;;;;1925025;75;20173;-72
2021/08/21 05:49:45;;;;;;;;;;;15.90;99.90;;;;;;1925091;73;20164;-74
2021/08/21 05:52:12;;;;;;;;;;;15.90;99.90;;;;;;1924907;75;20152;-74
2021/08/21 05:54:39;;;;;;;;;;;15.90;99.90;;;;;;1925137;73;20163;-74
2021/08/21 05:57:06;;;;;;;;;;;16.00;99.90;;;;;;1924671;75;20153;-73
2021/08/21 05:59:32;;;;;;;;;;;16.00;99.90;;;;;;1924679;73;20110;-73
2021/08/21 06:01:59;;;;;;;;;;;16.00;99.90;;;;;;1924661;73;20214;-74
2021/08/21 06:04:26;;;;;;;;;;;16.00;99.90;;;;;;1924939;75;20117;-74
2021/08/21 06:06:53;;;;;;;;;;;16.10;99.90;;;;;;1925027;74;20454;-74
2021/08/21 06:09:23;;;;;;;;;;;16.10;99.90;;;;;;1925298;75;20161;-73
2021/08/21 06:11:48;;;;;;;;;;;16.10;99.90;;;;;;1924444;73;20190;-73
2021/08/21 06:14:15;;;;;;;;;;;16.10;99.90;;;;;;1924960;75;20126;-73
2021/08/21 06:16:42;;;;;;;;;;;16.00;99.90;;;;;;1924928;74;20173;-72
2021/08/21 06:19:09;;;;;;;;;;;16.00;99.90;;;;;;1925127;73;20153;-74
2021/08/21 06:21:35;;;;;;;;;;;16.10;99.90;;;;;;1924514;73;20157;-73
2021/08/21 06:24:02;;;;;;;;;;;16.10;99.90;;;;;;1924522;73;20161;-74
2021/08/21 06:26:29;;;;;;;;;;;16.20;99.90;;;;;;1924513;75;20153;-73
2021/08/21 06:28:56;;;;;;;;;;;16.30;99.90;;;;;;1924646;74;20469;-73
2021/08/21 06:31:23;;;;;;;;;;;16.30;99.90;;;;;;1924375;73;20169;-73
2021/08/21 06:33:50;;;;;;;;;;;16.30;99.90;;;;;;1924697;73;20415;-73
2021/08/21 06:36:16;;;;;;;;;;;16.30;99.90;;;;;;1924604;74;20169;-74
2021/08/21 06:38:43;;;;;;;;;;;16.30;99.90;;;;;;1924648;75;20180;-72
2021/08/21 06:41:10;;;;;;;;;;;16.30;99.90;;;;;;1924319;73;20498;-74
2021/08/21 06:43:37;;;;;;;;;;;16.40;99.90;;;;;;1924785;73;20154;-74
2021/08/21 06:46:04;;;;;;;;;;;16.40;99.90;;;;;;1924877;74;20396;-73
2021/08/21 06:48:32;;;;;;;;;;;16.50;99.90;;;;;;1924712;73;20177;-73
2021/08/21 06:50:59;;;;;;;;;;;16.50;99.90;;;;;;1924354;73;20169;-73
2021/08/21 06:53:28;;;;;;;;;;;16.60;99.90;;;;;;1924807;75;20183;-72
2021/08/21 06:55:54;;;;;;;;;;;16.60;99.90;;;;;;1924347;73;20148;-72
2021/08/21 06:58:21;;;;;;;;;;;16.60;99.90;;;;;;1924710;73;20422;-73
2021/08/21 07:00:49;;;;;;;;;;;16.60;99.90;;;;;;1924264;73;20161;-73
2021/08/21 07:03:15;;;;;;;;;;;16.60;99.90;;;;;;1924564;73;20157;-73
2021/08/21 07:05:42;;;;;;;;;;;16.70;99.90;;;;;;1924621;73;20152;-73
2021/08/21 07:08:09;;;;;;;;;;;16.70;99.90;;;;;;1924657;75;20192;-73
2021/08/21 07:10:36;;;;;;;;;;;16.70;99.90;;;;;;1924483;73;20215;-72
2021/08/21 07:13:03;;;;;;;;;;;16.80;99.90;;;;;;1924757;75;20185;-72
2021/08/21 07:15:29;;;;;;;;;;;16.80;99.90;;;;;;1924779;73;20204;-72
2021/08/21 07:17:56;;;;;;;;;;;16.80;99.90;;;;;;1924642;73;20243;-73
2021/08/21 07:20:23;;;;;;;;;;;16.90;99.90;;;;;;1924277;73;20199;-73
2021/08/21 07:22:50;;;;;;;;;;;16.90;99.90;;;;;;1924622;73;20145;-72
2021/08/21 07:25:17;;;;;;;;;;;17.00;99.90;;;;;;1924592;73;20371;-73
2021/08/21 07:27:44;;;;;;;;;;;17.00;99.90;;;;;;1924515;74;20161;-73
2021/08/21 07:30:12;;;;;;;;;;;17.10;99.90;;;;;;1924709;73;20464;-72
2021/08/21 07:32:39;;;;;;;;;;;17.00;99.90;;;;;;1924450;74;20106;-74
2021/08/21 07:35:06;;;;;;;;;;;17.10;99.90;;;;;;1924784;73;20153;-74
2021/08/21 07:37:38;;;;;;;;;;;17.10;99.90;;;;;;1924683;73;20387;-73
2021/08/21 07:40:01;;;;;;;;;;;17.10;99.90;;;;;;1922599;73;20117;-73
2021/08/21 07:42:28;;;;;;;;;;;17.10;99.90;;;;;;1924292;75;20173;-73
2021/08/21 07:44:55;;;;;;;;;;;17.20;99.90;;;;;;1924575;75;20157;-73
2021/08/21 07:47:22;;;;;;;;;;;17.20;99.90;;;;;;1924726;75;20114;-73
2021/08/21 07:49:48;;;;;;;;;;;17.20;99.90;;;;;;1924820;73;20220;-73
2021/08/21 07:52:15;;;;;;;;;;;17.20;99.90;;;;;;1924295;75;20150;-72
2021/08/21 07:54:42;;;;;;;;;;;17.30;99.90;;;;;;1924539;75;20158;-72
2021/08/21 07:57:09;;;;;;;;;;;17.30;99.90;;;;;;1924653;75;20170;-72
2021/08/21 07:59:35;;;;;;;;;;;17.30;99.90;;;;;;1924675;73;20125;-72
2021/08/21 08:02:03;;;;;;;;;;;17.30;99.90;;;;;;1924290;75;20168;-73
2021/08/21 08:04:30;;;;;;;;;;;17.40;99.90;;;;;;1924712;75;20122;-72
2021/08/21 08:06:57;;;;;;;;;;;17.40;99.90;;;;;;1924638;75;20134;-72
2021/08/21 08:09:23;;;;;;;;;;;17.40;99.90;;;;;;1924502;75;20161;-73
2021/08/21 08:11:50;;;;;;;;;;;17.40;99.90;;;;;;1924321;73;20165;-72
2021/08/21 08:14:17;;;;;;;;;;;17.50;99.90;;;;;;1924576;73;20168;-72
2021/08/21 08:16:44;;;;;;;;;;;17.50;99.90;;;;;;1924571;73;20126;-72
2021/08/21 08:19:11;;;;;;;;;;;17.50;99.90;;;;;;1924625;75;20126;-72
2021/08/21 08:21:37;;;;;;;;;;;17.50;99.90;;;;;;1924202;73;20173;-72
2021/08/21 08:24:04;;;;;;;;;;;17.60;99.90;;;;;;1924560;75;20129;-72
2021/08/21 08:26:31;;;;;;;;;;;17.60;99.90;;;;;;1924499;75;20177;-73
2021/08/21 08:28:58;;;;;;;;;;;17.60;99.90;;;;;;1924674;74;20172;-72
2021/08/21 08:31:25;;;;;;;;;;;17.60;99.90;;;;;;1944649;72;20138;-73
2021/08/21 08:33:51;;;;;;;;;;;17.60;99.90;;;;;;1962742;73;20170;-74
2021/08/21 08:36:18;;;;;;;;;;;17.70;99.90;;;;;;1962484;73;20168;-73
2021/08/21 08:38:45;;;;;;;;;;;17.70;99.90;;;;;;1962633;73;20171;-73
2021/08/21 08:41:12;;;;;;;;;;;17.70;99.90;;;;;;1962236;72;20110;-74
2021/08/21 08:43:40;;;;;;;;;;;17.70;99.90;;;;;;1960344;73;20125;-73
2021/08/21 08:46:07;;;;;;;;;;;17.70;99.90;;;;;;1959793;73;20121;-73
2021/08/21 08:48:37;;;;;;;;;;;17.70;99.90;;;;;;1959434;73;20161;-73
2021/08/21 08:51:06;;;;;;;;;;;17.70;99.90;;;;;;1958973;72;20214;-74
2021/08/21 08:53:35;;;;;;;;;;;17.80;99.90;;;;;;1959483;73;20117;-73
2021/08/21 08:56:02;;;;;;;;;;;17.80;99.90;;;;;;1959478;72;20125;-74
2021/08/21 08:58:29;;;;;;;;;;;17.90;99.90;;;;;;1959734;72;20462;-74
2021/08/21 09:00:55;;;;;;;;;;;17.90;99.90;;;;;;1959323;72;20121;-74
2021/08/21 09:03:24;;;;;;;;;;;17.90;99.90;;;;;;1959606;73;20446;-74
2021/08/21 09:05:52;;;;;;;;;;;17.90;99.90;;;;;;1959711;73;20192;-74
2021/08/21 09:08:20;;;;;;;;;;;18.00;99.90;;;;;;1959574;73;20207;-74
2021/08/21 09:10:47;;;;;;;;;;;18.00;99.90;;;;;;1958984;72;20153;-74
2021/08/21 09:13:18;;;;;;;;;;;18.00;99.90;;;;;;1959817;73;20450;-75
2021/08/21 09:15:46;;;;;;;;;;;18.10;99.90;;;;;;1959720;73;20172;-75
2021/08/21 09:18:14;;;;;;;;;;;18.10;99.90;;;;;;1959644;72;20212;-75
2021/08/21 09:20:51;;;;;;;;;;;18.20;99.90;;;;;;1959187;72;20165;-73
2021/08/21 09:23:25;;;;;;;;;;;18.10;99.90;;;;;;1959520;73;20133;-74
2021/08/21 09:25:54;;;;;;;;;;;18.20;99.90;;;;;;1959520;73;20180;-72
2021/08/21 09:28:25;;;;;;;;;;;18.20;99.90;;;;;;1957323;73;20117;-72
2021/08/21 09:31:11;;;;;;;;;;;18.20;99.90;;;;;;1959281;72;20472;-74
2021/08/21 09:33:39;;;;;;;;;;;18.30;99.90;;;;;;1959511;73;20202;-74
2021/08/21 09:36:08;;;;;;;;;;;18.30;99.90;;;;;;1959719;73;20117;-74
2021/08/21 09:38:35;;;;;;;;;;;18.30;99.90;;;;;;1958482;73;20160;-74
2021/08/21 09:41:06;;;;;;;;;;;18.30;99.90;;;;;;1959549;72;20172;-74
2021/08/21 09:43:34;;;;;;;;;;;18.30;99.90;;;;;;1959709;73;20144;-73
2021/08/21 09:46:10;;;;;;;;;;;18.40;99.90;;;;;;1959534;73;20117;-74
2021/08/21 09:48:37;;;;;;;;;;;18.40;99.90;;;;;;1959260;73;20526;-74
2021/08/21 09:51:04;;;;;;;;;;;18.50;99.90;;;;;;1956112;72;20164;-74
2021/08/21 09:53:37;;;;;;;;;;;18.50;99.90;;;;;;1959487;73;20462;-74
2021/08/21 09:56:11;;;;;;;;;;;18.50;99.90;;;;;;1959548;73;20186;-74
2021/08/21 09:58:37;;;;;;;;;;;18.50;99.90;;;;;;1959525;73;20148;-73
2021/08/21 10:01:05;;;;;;;;;;;18.50;99.90;;;;;;1959471;72;20563;-73
2021/08/21 10:03:32;;;;;;;;;;;18.50;99.90;;;;;;1959798;73;20299;-73
2021/08/21 10:05:59;;;;;;;;;;;18.60;99.90;;;;;;1959607;73;20106;-73
2021/08/21 10:08:28;;;;;;;;;;;18.60;99.90;;;;;;1959773;73;20210;-74
2021/08/21 10:10:58;;;;;;;;;;;18.70;99.90;;;;;;1959428;72;20172;-73
2021/08/21 10:13:30;;;;;;;;;;;18.70;99.90;;;;;;1959337;73;20144;-73
2021/08/21 10:15:57;;;;;;;;;;;18.70;99.90;;;;;;1959704;73;20195;-73
2021/08/21 10:18:25;;;;;;;;;;;18.80;99.90;;;;;;1959726;73;20528;-74
2021/08/21 10:20:51;;;;;;;;;;;18.70;99.90;;;;;;1959354;72;20446;-74
2021/08/21 10:23:23;;;;;;;;;;;18.80;99.90;;;;;;1959848;73;20122;-74
2021/08/21 10:25:49;;;;;;;;;;;18.80;99.90;;;;;;1959255;72;20199;-73
2021/08/21 10:28:17;;;;;;;;;;;18.80;99.90;;;;;;1959038;73;20407;-73
2021/08/21 10:30:45;;;;;;;;;;;18.90;99.90;;;;;;1959327;72;20438;-74
2021/08/21 10:33:12;;;;;;;;;;;18.80;99.90;;;;;;1959875;73;20164;-73
2021/08/21 10:35:50;;;;;;;;;;;18.80;99.90;;;;;;1959589;73;20493;-74
2021/08/21 10:38:33;;;;;;;;;;;18.80;99.90;;;;;;1959745;73;20117;-73
2021/08/21 10:41:13;;;;;;;;;;;18.90;99.90;;;;;;1959499;72;20181;-73
2021/08/21 10:43:44;;;;;;;;;;;18.90;99.90;;;;;;1959622;73;20137;-73
2021/08/21 10:46:12;;;;;;;;;;;19.00;99.90;;;;;;1959666;73;20168;-73
2021/08/21 10:48:40;;;;;;;;;;;19.00;99.90;;;;;;1959553;73;20147;-73
2021/08/21 10:51:09;;;;;;;;;;;19.00;99.90;;;;;;1959317;72;20110;-73
2021/08/21 10:53:38;;;;;;;;;;;19.00;99.90;;;;;;1955448;73;20176;-73
2021/08/21 10:56:04;;;;;;;;;;;19.00;99.90;;;;;;1959253;73;20180;-73
2021/08/21 10:58:32;;;;;;;;;;;19.00;99.90;;;;;;1959692;73;20113;-73
2021/08/21 11:01:03;;;;;;;;;;;19.10;99.90;;;;;;1959481;72;20157;-73
2021/08/21 11:03:31;;;;;;;;;;;19.20;99.90;;;;;;1959728;72;20148;-73
2021/08/21 11:06:00;;;;;;;;;;;19.20;99.90;;;;;;1959686;73;20457;-73
2021/08/21 11:08:28;;;;;;;;;;;19.20;99.90;;;;;;1959714;73;20109;-73
2021/08/21 11:11:18;;;;;;;;;;;19.20;99.90;;;;;;1959644;72;20153;-73
2021/08/21 11:13:53;;;;;;;;;;;19.30;99.90;;;;;;1957523;73;20215;-73
2021/08/21 11:16:20;;;;;;;;;;;19.30;99.90;;;;;;1959340;72;20176;-72
2021/08/21 11:18:48;;;;;;;;;;;19.40;99.90;;;;;;1959605;73;20157;-73
2021/08/21 11:21:33;;;;;;;;;;;19.40;99.90;;;;;;1959383;72;20350;-73
2021/08/21 11:23:59;;;;;;;;;;;19.40;99.90;;;;;;1959702;73;20144;-73
2021/08/21 11:26:26;;;;;;;;;;;19.50;99.90;;;;;;1959686;73;20507;-73
2021/08/21 11:29:04;;;;;;;;;;;19.70;99.90;;;;;;1959697;73;20157;-73
2021/08/21 11:31:32;;;;;;;;;;;19.70;99.90;;;;;;1958762;72;20149;-73
2021/08/21 11:33:59;;;;;;;;;;;19.70;99.90;;;;;;1955828;73;20180;-73
2021/08/21 11:36:27;;;;;;;;;;;19.70;99.90;;;;;;1959761;73;20212;-73
2021/08/21 11:38:53;;;;;;;;;;;19.80;99.90;;;;;;1959801;73;20172;-73
2021/08/21 11:41:20;;;;;;;;;;;19.80;99.90;;;;;;1959429;72;20121;-73
2021/08/21 11:43:47;;;;;;;;;;;19.90;99.90;;;;;;1959736;73;20176;-73
2021/08/21 11:46:15;;;;;;;;;;;20.00;99.90;;;;;;1959676;73;20145;-73
2021/08/21 11:48:42;;;;;;;;;;;20.00;99.90;;;;;;1957994;72;20117;-73
2021/08/21 11:51:09;;;;;;;;;;;19.90;99.90;;;;;;1959412;72;20241;-73
2021/08/21 11:53:40;;;;;;;;;;;20.00;99.90;;;;;;1959709;73;20102;-73
2021/08/21 11:56:07;;;;;;;;;;;19.90;99.90;;;;;;1959636;73;20192;-73
2021/08/21 11:58:35;;;;;;;;;;;19.90;99.90;;;;;;1959608;72;20214;-72
2021/08/21 12:01:13;;;;;;;;;;;19.90;99.90;;;;;;1959056;72;20462;-73
2021/08/21 12:04:22;;;;;;;;;;;19.80;99.90;;;;;;1955975;73;20243;-73
2021/08/21 12:06:03;;;;;;;;;;;19.90;99.90;;;;;;1955570;73;20420;-73
2021/08/21 12:08:30;;;;;;;;;;;19.90;99.90;;;;;;1959492;73;20172;-73
2021/08/21 12:10:58;;;;;;;;;;;20.00;99.90;;;;;;1959468;72;20434;-73
2021/08/21 12:13:32;;;;;;;;;;;20.20;99.90;;;;;;1958832;73;20113;-73
2021/08/21 12:16:10;;;;;;;;;;;20.50;99.90;;;;;;1959111;73;20359;-73
2021/08/21 12:18:37;;;;;;;;;;;20.70;99.90;;;;;;1959776;73;20441;-73
2021/08/21 12:21:05;;;;;;;;;;;20.70;99.90;;;;;;1959330;72;20195;-73
2021/08/21 12:23:32;;;;;;;;;;;20.60;99.90;;;;;;1959718;73;20164;-73
2021/08/21 12:26:00;;;;;;;;;;;20.50;99.90;;;;;;1959560;73;20106;-73
2021/08/21 12:28:37;;;;;;;;;;;20.50;99.90;;;;;;1959747;73;20163;-72
2021/08/21 12:31:09;;;;;;;;;;;20.40;99.90;;;;;;1959544;72;20125;-73
2021/08/21 12:33:36;;;;;;;;;;;20.30;99.90;;;;;;1959805;73;20148;-73
2021/08/21 12:36:10;;;;;;;;;;;20.50;99.90;;;;;;1959562;73;20225;-72
2021/08/21 12:38:37;;;;;;;;;;;20.70;99.90;;;;;;1959423;73;20510;-73
2021/08/21 12:41:05;;;;;;;;;;;20.90;99.90;;;;;;1959173;72;20125;-73
2021/08/21 12:43:32;;;;;;;;;;;20.90;99.90;;;;;;1958855;73;20148;-73
2021/08/21 12:45:58;;;;;;;;;;;21.00;99.90;;;;;;1959606;73;20273;-73
2021/08/21 12:48:25;;;;;;;;;;;21.10;99.90;;;;;;1959666;73;20218;-73
2021/08/21 12:50:52;;;;;;;;;;;21.10;99.90;;;;;;1959456;72;20147;-73
2021/08/21 12:53:20;;;;;;;;;;;21.10;99.90;;;;;;1959686;72;20188;-73
2021/08/21 12:55:48;;;;;;;;;;;21.00;99.90;;;;;;1959456;73;20431;-73
2021/08/21 12:58:14;;;;;;;;;;;20.90;99.90;;;;;;1959930;72;20383;-73
2021/08/21 13:00:42;;;;;;;;;;;21.00;99.90;;;;;;1959267;72;20168;-73
2021/08/21 13:03:12;;;;;;;;;;;21.00;99.90;;;;;;1959678;73;20113;-74
2021/08/21 13:05:39;;;;;;;;;;;20.90;99.90;;;;;;1959714;73;20164;-73
2021/08/21 13:08:08;;;;;;;;;;;20.90;99.90;;;;;;1959644;73;20117;-73
2021/08/21 13:10:37;;;;;;;;;;;21.10;99.90;;;;;;1959205;72;20180;-73
2021/08/21 13:13:06;;;;;;;;;;;21.20;99.90;;;;;;1959532;73;20190;-73
2021/08/21 13:15:32;;;;;;;;;;;21.30;99.90;;;;;;1959313;72;20106;-73
2021/08/21 13:18:03;;;;;;;;;;;21.30;99.90;;;;;;1959387;73;20184;-73
2021/08/21 13:20:28;;;;;;;;;;;21.20;99.90;;;;;;1958779;72;20180;-73
2021/08/21 13:22:54;;;;;;;;;;;21.10;99.90;;;;;;1959573;73;20113;-73
2021/08/21 13:25:21;;;;;;;;;;;21.30;99.90;;;;;;1959449;73;20209;-73
2021/08/21 13:27:48;;;;;;;;;;;21.40;99.90;;;;;;1959476;73;20246;-73
2021/08/21 13:30:15;;;;;;;;;;;21.60;99.90;;;;;;1959571;72;20430;-74
2021/08/21 13:32:42;;;;;;;;;;;21.60;99.90;;;;;;1959319;73;20152;-74
2021/08/21 13:35:09;;;;;;;;;;;21.60;99.90;;;;;;1959650;73;20153;-73
2021/08/21 13:37:36;;;;;;;;;;;21.70;99.90;;;;;;1959666;73;20188;-73
2021/08/21 13:40:03;;;;;;;;;;;21.80;99.90;;;;;;1959761;72;20157;-73
2021/08/21 13:42:30;;;;;;;;;;;21.60;99.90;;;;;;1959506;72;20157;-73
2021/08/21 13:44:57;;;;;;;;;;;21.50;99.90;;;;;;1959757;73;20434;-73
2021/08/21 13:47:24;;;;;;;;;;;21.30;99.90;;;;;;1959697;73;20109;-73
2021/08/21 13:49:51;;;;;;;;;;;21.20;99.90;;;;;;1959638;72;20168;-73
2021/08/21 13:52:18;;;;;;;;;;;21.20;99.90;;;;;;1959447;72;20584;-73
2021/08/21 13:54:45;;;;;;;;;;;21.10;99.90;;;;;;1959652;73;20172;-72
2021/08/21 13:57:12;;;;;;;;;;;21.10;99.90;;;;;;1959763;73;20152;-73
2021/08/21 13:59:40;;;;;;;;;;;21.10;99.90;;;;;;1959667;73;20168;-73
2021/08/21 14:02:07;;;;;;;;;;;21.10;99.90;;;;;;1959470;72;20271;-73
2021/08/21 14:04:33;;;;;;;;;;;21.10;99.90;;;;;;1959638;73;20161;-73
2021/08/21 14:07:00;;;;;;;;;;;21.10;99.90;;;;;;1959823;73;20121;-73
2021/08/21 14:09:27;;;;;;;;;;;21.10;99.90;;;;;;1959706;72;20203;-73
2021/08/21 14:11:54;;;;;;;;;;;21.10;99.90;;;;;;1959446;72;20232;-73
2021/08/21 14:14:24;;;;;;;;;;;21.10;99.90;;;;;;1959748;73;20462;-73
2021/08/21 14:16:49;;;;;;;;;;;21.20;99.90;;;;;;1959229;73;20243;-73
2021/08/21 14:19:16;;;;;;;;;;;21.10;99.90;;;;;;1959675;73;20200;-73
2021/08/21 14:21:45;;;;;;;;;;;21.10;99.90;;;;;;1959483;72;20117;-73